createdAt,value
2022-08-12T00:00:17.080Z,51.64
2022-08-12T00:03:25.708Z,51.43
2022-08-12T00:06:16.336Z,51.19
2022-08-12T00:09:07.041Z,51.71
2022-08-12T00:11:56.683Z,51.61
2022-08-12T00:14:46.744Z,51.77
2022-08-12T00:17:36.836Z,51.55
2022-08-12T00:20:29.845Z,51.53
2022-08-12T00:23:20.157Z,51.45
2022-08-12T00:26:23.184Z,51.33
2022-08-12T00:29:14.935Z,51.02
2022-08-12T00:32:05.032Z,51.55
2022-08-12T00:34:55.332Z,51.82
2022-08-12T00:37:44.832Z,51.34
2022-08-12T00:40:35.701Z,51.72
2022-08-12T00:43:12.152Z,52.34
2022-08-12T00:46:03.230Z,52.37
2022-08-12T00:48:36.003Z,52.21
2022-08-12T00:51:09.769Z,52.12
2022-08-12T00:53:42.022Z,52.25
2022-08-12T00:56:14.077Z,51.99
2022-08-12T00:58:52.576Z,52.09
2022-08-12T01:01:25.649Z,52.37
2022-08-12T01:04:23.616Z,52.10
2022-08-12T01:07:16.828Z,51.85
2022-08-12T01:10:08.856Z,52.17
2022-08-12T01:12:42.760Z,52.24
2022-08-12T01:15:16.715Z,52.14
2022-08-12T01:17:50.154Z,52.35
2022-08-12T01:20:38.185Z,52.36
2022-08-12T01:23:36.495Z,52.39
2022-08-12T01:26:11.669Z,53.05
2022-08-12T01:28:45.495Z,53.27
2022-08-12T01:31:19.811Z,52.86
2022-08-12T01:34:00.771Z,52.79
2022-08-12T01:36:41.181Z,52.92
2022-08-12T01:39:15.999Z,53.07
2022-08-12T01:41:52.086Z,52.85
2022-08-12T01:44:27.302Z,52.97
2022-08-12T01:47:07.273Z,53.73
2022-08-12T01:50:05.631Z,53.51
2022-08-12T01:52:49.667Z,53.82
2022-08-12T01:55:23.996Z,53.51
2022-08-12T01:58:08.510Z,53.78
2022-08-12T02:00:56.081Z,53.74
2022-08-12T02:04:10.591Z,53.96
2022-08-12T02:07:11.165Z,53.76
2022-08-12T02:10:50.609Z,53.87
2022-08-12T02:13:48.605Z,53.98
2022-08-12T02:16:22.954Z,53.99
2022-08-12T02:19:22.423Z,54.18
2022-08-12T02:22:05.711Z,54.09
2022-08-12T02:24:41.912Z,54.49
2022-08-12T02:27:16.537Z,54.39
2022-08-12T02:29:49.404Z,54.22
2022-08-12T02:32:22.264Z,54.40
2022-08-12T02:34:57.154Z,54.68
2022-08-12T02:37:27.936Z,54.70
2022-08-12T02:40:03.579Z,54.58
2022-08-12T02:42:37.289Z,54.43
2022-08-12T02:45:12.953Z,54.78
2022-08-12T02:47:59.695Z,54.35
2022-08-12T02:50:36.465Z,54.72
2022-08-12T02:53:09.355Z,55.12
2022-08-12T02:55:45.735Z,55.30
2022-08-12T02:58:19.819Z,55.21
2022-08-12T03:00:52.912Z,54.90
2022-08-12T03:03:31.064Z,54.64
2022-08-12T03:06:07.210Z,54.50
2022-08-12T03:08:43.546Z,54.52
2022-08-12T03:11:24.716Z,54.54
2022-08-12T03:14:01.545Z,54.23
2022-08-12T03:16:36.749Z,54.39
2022-08-12T03:19:09.376Z,54.52
2022-08-12T03:21:52.738Z,54.45
2022-08-12T03:24:42.985Z,54.63
2022-08-12T03:27:16.713Z,54.82
2022-08-12T03:29:51.407Z,54.92
2022-08-12T03:32:35.227Z,55.00
2022-08-12T03:35:36.957Z,55.26
2022-08-12T03:38:11.601Z,55.37
2022-08-12T03:41:14.622Z,54.93
2022-08-12T03:44:14.848Z,55.18
2022-08-12T03:47:12.544Z,55.44
2022-08-12T03:50:02.196Z,55.79
2022-08-12T03:52:51.575Z,56.29
2022-08-12T03:55:41.777Z,56.50
2022-08-12T03:58:32.513Z,56.37
2022-08-12T04:01:06.223Z,56.36
2022-08-12T04:03:53.969Z,56.80
2022-08-12T04:06:34.979Z,56.85
2022-08-12T04:09:16.588Z,56.65
2022-08-12T04:12:08.450Z,56.44
2022-08-12T04:14:43.154Z,56.52
2022-08-12T04:17:16.585Z,56.80
2022-08-12T04:19:50.865Z,56.95
2022-08-12T04:22:23.466Z,57.20
2022-08-12T04:24:56.260Z,57.39
2022-08-12T04:27:32.017Z,57.47
2022-08-12T04:30:30.842Z,57.20
2022-08-12T04:32:58.173Z,57.04
2022-08-12T04:35:30.985Z,56.79
2022-08-12T04:38:03.423Z,56.79
2022-08-12T04:40:37.795Z,57.41
2022-08-12T04:43:59.917Z,57.61
2022-08-12T04:46:04.697Z,57.75
2022-08-12T04:48:36.656Z,57.73
2022-08-12T04:51:10.028Z,57.53
2022-08-12T04:53:46.869Z,57.79
2022-08-12T04:56:19.408Z,57.75
2022-08-12T04:58:52.790Z,57.85
2022-08-12T05:01:27.954Z,58.37
2022-08-12T05:04:02.912Z,58.26
2022-08-12T05:06:35.036Z,57.95
2022-08-12T05:09:11.195Z,58.34
2022-08-12T05:11:53.856Z,58.68
2022-08-12T05:14:26.933Z,58.48
2022-08-12T05:17:00.448Z,58.34
2022-08-12T05:19:34.624Z,58.85
2022-08-12T05:22:09.428Z,58.11
2022-08-12T05:24:42.455Z,58.02
2022-08-12T05:27:14.917Z,58.85
2022-08-12T05:30:07.867Z,58.97
2022-08-12T05:32:47.072Z,58.97
2022-08-12T05:35:19.115Z,59.48
2022-08-12T05:38:15.726Z,59.57
2022-08-12T05:40:48.652Z,60.08
2022-08-12T05:43:21.665Z,60.42
2022-08-12T05:45:54.448Z,60.81
2022-08-12T05:48:28.410Z,61.79
2022-08-12T05:51:00.430Z,61.26
2022-08-12T05:53:32.618Z,62.58
2022-08-12T05:56:05.574Z,63.15
2022-08-12T05:58:37.758Z,63.15
2022-08-12T06:02:09.752Z,63.22
2022-08-12T06:04:02.835Z,62.28
2022-08-12T06:06:39.728Z,62.46
2022-08-12T06:09:12.289Z,60.89
2022-08-12T06:12:05.089Z,61.03
2022-08-12T06:14:39.454Z,60.90
2022-08-12T06:17:12.452Z,59.60
2022-08-12T06:20:26.015Z,58.78
2022-08-12T06:22:37.488Z,59.45
2022-08-12T06:25:10.527Z,59.34
2022-08-12T06:28:07.973Z,58.65
2022-08-12T06:30:41.328Z,58.24
2022-08-12T06:33:25.124Z,57.90
2022-08-12T06:36:07.762Z,57.81
2022-08-12T06:38:41.520Z,56.77
2022-08-12T06:41:31.470Z,57.40
2022-08-12T06:44:07.927Z,57.02
2022-08-12T06:46:40.470Z,56.62
2022-08-12T06:49:13.398Z,56.21
2022-08-12T06:51:53.564Z,56.45
2022-08-12T06:54:31.817Z,56.31
2022-08-12T06:58:08.248Z,56.17
2022-08-12T06:59:56.991Z,55.70
2022-08-12T07:02:31.519Z,55.31
2022-08-12T07:05:07.223Z,55.10
2022-08-12T07:07:39.481Z,55.10
2022-08-12T07:10:12.293Z,54.78
2022-08-12T07:12:45.337Z,54.31
2022-08-12T07:15:18.706Z,53.99
2022-08-12T07:17:51.379Z,54.28
2022-08-12T07:20:50.783Z,54.68
2022-08-12T07:23:16.367Z,53.98
2022-08-12T07:25:48.600Z,53.65
2022-08-12T07:28:23.682Z,54.21
2022-08-12T07:30:57.117Z,54.81
2022-08-12T07:33:31.287Z,53.55
2022-08-12T07:36:06.391Z,52.39
2022-08-12T07:38:42.421Z,52.75
2022-08-12T07:41:17.178Z,52.32
2022-08-12T07:43:48.987Z,52.33
2022-08-12T07:46:23.226Z,51.96
2022-08-12T07:48:57.324Z,52.04
2022-08-12T07:51:30.462Z,51.76
2022-08-12T07:54:04.484Z,51.40
2022-08-12T07:56:38.360Z,50.15
2022-08-12T07:59:11.275Z,49.95
2022-08-12T08:01:43.662Z,50.70
2022-08-12T08:04:33.269Z,51.17
2022-08-12T08:07:10.704Z,50.39
2022-08-12T08:09:42.803Z,49.56
2022-08-12T08:12:32.369Z,50.56
2022-08-12T08:15:05.093Z,50.40
2022-08-12T08:17:37.501Z,50.13
2022-08-12T08:20:14.356Z,49.83
2022-08-12T08:22:46.446Z,50.35
2022-08-12T08:25:36.235Z,49.75
2022-08-12T08:28:12.594Z,49.98
2022-08-12T08:30:50.555Z,49.73
2022-08-12T08:34:04.938Z,49.59
2022-08-12T08:36:23.939Z,49.43
2022-08-12T08:38:58.546Z,48.91
2022-08-12T08:42:13.803Z,49.17
2022-08-12T08:44:58.399Z,48.75
2022-08-12T08:47:31.091Z,48.65
2022-08-12T08:50:04.054Z,48.23
2022-08-12T08:52:40.357Z,48.08
2022-08-12T08:55:18.621Z,47.64
2022-08-12T08:57:56.141Z,47.40
2022-08-12T09:00:29.736Z,45.72
2022-08-12T09:03:04.247Z,46.66
2022-08-12T09:06:02.448Z,47.13
2022-08-12T09:08:35.366Z,46.23
2022-08-12T09:12:07.198Z,46.18
2022-08-12T09:14:18.949Z,45.71
2022-08-12T09:17:01.417Z,45.34
2022-08-12T09:19:33.907Z,45.27
2022-08-12T09:22:08.704Z,45.40
2022-08-12T09:24:40.872Z,44.46
2022-08-12T09:27:17.571Z,44.82
2022-08-12T09:30:10.587Z,44.63
2022-08-12T09:33:04.179Z,44.08
2022-08-12T09:35:42.977Z,43.81
2022-08-12T09:38:29.833Z,43.78
2022-08-12T09:42:09.073Z,42.99
2022-08-12T09:44:38.465Z,42.85
2022-08-12T09:47:04.323Z,43.29
2022-08-12T09:49:43.056Z,43.62
2022-08-12T09:52:16.728Z,43.52
2022-08-12T09:54:56.283Z,42.79
2022-08-12T09:58:46.933Z,42.74
2022-08-12T10:00:30.566Z,42.61
2022-08-12T10:03:31.816Z,42.21
2022-08-12T10:06:19.559Z,42.32
2022-08-12T10:08:59.073Z,42.30
2022-08-12T10:12:12.051Z,42.00
2022-08-12T10:14:50.214Z,41.86
2022-08-12T10:17:56.783Z,41.97
2022-08-12T10:20:38.390Z,41.87
2022-08-12T10:23:12.714Z,41.86
2022-08-12T10:26:36.103Z,41.78
2022-08-12T10:30:02.902Z,41.04
2022-08-12T10:32:22.118Z,41.13
2022-08-12T10:35:01.006Z,40.74
2022-08-12T10:38:38.808Z,40.93
2022-08-12T10:40:31.625Z,41.01
2022-08-12T10:43:22.742Z,40.67
2022-08-12T10:45:58.310Z,40.11
2022-08-12T10:48:34.169Z,40.28
2022-08-12T10:52:03.018Z,40.07
2022-08-12T10:54:00.731Z,39.78
2022-08-12T10:56:35.464Z,39.42
2022-08-12T10:59:10.940Z,39.06
2022-08-12T11:04:17.244Z,39.37
2022-08-12T11:04:48.931Z,39.85
2022-08-12T11:08:37.758Z,39.89
2022-08-12T11:10:14.414Z,39.87
2022-08-12T11:12:59.950Z,39.94
2022-08-12T11:16:03.779Z,39.77
2022-08-12T11:18:26.687Z,39.26
2022-08-12T11:21:01.049Z,39.12
2022-08-12T11:23:45.781Z,39.10
2022-08-12T11:26:26.237Z,39.08
2022-08-12T11:29:05.370Z,38.83
2022-08-12T11:31:56.046Z,38.98
2022-08-12T11:34:52.730Z,39.37
2022-08-12T11:37:25.467Z,39.23
2022-08-12T11:42:46.399Z,39.24
2022-08-12T11:45:20.024Z,39.31
2022-08-12T11:47:55.536Z,39.46
2022-08-12T11:50:32.203Z,39.59
2022-08-12T11:53:04.589Z,39.64
2022-08-12T11:55:57.162Z,39.26
2022-08-12T11:59:44.407Z,39.35
2022-08-12T12:02:01.025Z,39.41
2022-08-12T12:04:22.639Z,39.12
2022-08-12T12:07:06.740Z,38.81
2022-08-12T12:09:51.984Z,38.89
2022-08-12T12:12:26.610Z,38.91
2022-08-12T12:15:03.142Z,38.89
2022-08-12T12:17:40.265Z,38.73
2022-08-12T12:20:14.016Z,38.63
2022-08-12T12:22:46.829Z,38.84
2022-08-12T12:25:19.783Z,39.23
2022-08-12T12:28:05.973Z,39.09
2022-08-12T12:30:39.764Z,38.75
2022-08-12T12:33:27.031Z,38.93
2022-08-12T12:36:24.064Z,38.83
2022-08-12T12:39:02.077Z,39.19
2022-08-12T12:42:43.280Z,39.35
2022-08-12T12:44:38.637Z,38.77
2022-08-12T12:47:28.918Z,38.90
2022-08-12T12:50:02.365Z,39.20
2022-08-12T12:52:38.336Z,39.39
2022-08-12T12:55:16.455Z,39.40
2022-08-12T12:58:00.476Z,39.39
2022-08-12T13:00:34.031Z,39.57
2022-08-12T13:03:06.342Z,39.39
2022-08-12T13:05:53.765Z,39.07
2022-08-12T13:08:28.335Z,39.20
2022-08-12T13:11:09.216Z,39.09
2022-08-12T13:14:07.731Z,39.10
2022-08-12T13:16:33.964Z,38.92
2022-08-12T13:19:07.699Z,38.98
2022-08-12T13:22:00.364Z,39.30
2022-08-12T13:24:32.482Z,39.05
2022-08-12T13:27:05.108Z,38.50
2022-08-12T13:29:39.197Z,38.94
2022-08-12T13:32:30.819Z,39.23
2022-08-12T13:35:20.204Z,38.49
2022-08-12T13:37:58.223Z,38.27
2022-08-12T13:40:33.599Z,37.78
2022-08-12T13:43:07.125Z,38.19
2022-08-12T13:45:39.552Z,37.52
2022-08-12T13:48:11.941Z,37.61
2022-08-12T13:50:44.433Z,36.66
2022-08-12T13:53:23.986Z,37.05
2022-08-12T13:56:02.280Z,37.75
2022-08-12T13:58:37.559Z,37.72
2022-08-12T14:01:09.800Z,37.84
2022-08-12T14:03:51.457Z,38.41
2022-08-12T14:06:25.964Z,38.97
2022-08-12T14:09:15.671Z,39.14
2022-08-12T14:11:59.503Z,39.37
2022-08-12T14:14:35.577Z,39.04
2022-08-12T14:17:09.941Z,39.35
2022-08-12T14:20:02.579Z,39.49
2022-08-12T14:22:35.438Z,39.68
2022-08-12T14:25:10.990Z,39.26
2022-08-12T14:28:04.023Z,39.57
2022-08-12T14:30:39.623Z,39.71
2022-08-12T14:33:43.227Z,40.19
2022-08-12T14:36:15.789Z,39.70
2022-08-12T14:38:48.197Z,39.69
2022-08-12T14:41:23.359Z,39.63
2022-08-12T14:44:59.000Z,39.90
2022-08-12T14:47:01.124Z,39.86
2022-08-12T14:50:41.362Z,39.93
2022-08-12T14:52:58.919Z,40.36
2022-08-12T14:58:27.074Z,40.07
2022-08-12T15:01:16.215Z,40.02
2022-08-12T15:03:56.769Z,40.39
2022-08-12T15:06:44.261Z,40.08
2022-08-12T15:09:28.996Z,40.61
2022-08-12T15:12:04.023Z,39.50
2022-08-12T15:14:38.028Z,39.64
2022-08-12T15:17:10.720Z,40.08
2022-08-12T15:20:30.824Z,39.75
2022-08-12T15:22:55.625Z,40.07
2022-08-12T15:25:27.853Z,39.93
2022-08-12T15:28:04.600Z,39.54
2022-08-12T15:30:39.510Z,40.03
2022-08-12T15:33:18.681Z,39.92
2022-08-12T15:35:53.903Z,39.87
2022-08-12T15:38:28.249Z,39.25
2022-08-12T15:41:01.265Z,39.59
2022-08-12T15:43:51.594Z,39.83
2022-08-12T15:46:32.677Z,39.34
2022-08-12T15:49:16.869Z,39.65
2022-08-12T15:51:59.536Z,39.84
2022-08-12T15:54:42.276Z,39.77
2022-08-12T15:57:17.339Z,39.82
2022-08-12T16:00:00.590Z,39.96
2022-08-12T16:02:50.404Z,40.01
2022-08-12T16:06:13.211Z,40.12
2022-08-12T16:08:26.997Z,40.55
2022-08-12T16:11:00.281Z,40.66
2022-08-12T16:13:40.276Z,40.67
2022-08-12T16:16:23.681Z,40.79
2022-08-12T16:19:00.818Z,41.54
2022-08-12T16:21:52.496Z,40.64
2022-08-12T16:24:27.593Z,40.85
2022-08-12T16:26:59.951Z,40.98
2022-08-12T16:29:52.934Z,41.00
2022-08-12T16:32:31.120Z,41.33
2022-08-12T16:35:06.434Z,41.43
2022-08-12T16:38:25.115Z,41.15
2022-08-12T16:40:34.131Z,41.34
2022-08-12T16:43:25.434Z,41.53
2022-08-12T16:46:05.681Z,42.09
2022-08-12T16:48:55.129Z,42.67
2022-08-12T16:51:28.103Z,42.61
2022-08-12T16:54:00.644Z,42.50
2022-08-12T16:56:33.820Z,42.80
2022-08-12T16:59:15.791Z,42.88
2022-08-12T17:01:49.655Z,43.00
2022-08-12T17:04:24.439Z,43.17
2022-08-12T17:06:57.013Z,43.90
2022-08-12T17:09:34.349Z,43.21
2022-08-12T17:12:12.779Z,43.34
2022-08-12T17:14:47.257Z,43.47
2022-08-12T17:17:39.200Z,43.68
2022-08-12T17:20:34.982Z,44.12
2022-08-12T17:23:14.099Z,44.21
2022-08-12T17:25:49.003Z,44.03
2022-08-12T17:28:23.869Z,44.28
2022-08-12T17:30:59.666Z,44.10
2022-08-12T17:33:33.912Z,44.29
2022-08-12T17:36:08.655Z,44.18
2022-08-12T17:38:43.547Z,44.03
2022-08-12T17:41:56.645Z,44.65
2022-08-12T17:44:16.628Z,44.57
2022-08-12T17:46:53.652Z,45.09
2022-08-12T17:50:03.532Z,44.82
2022-08-12T17:52:20.942Z,45.04
2022-08-12T17:54:58.660Z,45.90
2022-08-12T17:57:31.664Z,46.18
2022-08-12T18:00:12.763Z,46.30
2022-08-12T18:02:46.663Z,46.44
2022-08-12T18:05:19.900Z,47.04
2022-08-12T18:07:57.981Z,46.83
2022-08-12T18:10:53.084Z,47.38
2022-08-12T18:13:40.699Z,48.12
2022-08-12T18:16:24.518Z,48.53
2022-08-12T18:19:02.030Z,48.47
2022-08-12T18:22:02.103Z,48.47
2022-08-12T18:24:29.439Z,48.85
2022-08-12T18:27:30.170Z,48.90
2022-08-12T18:29:55.571Z,48.45
2022-08-12T18:32:44.304Z,49.08
2022-08-12T18:35:22.788Z,48.87
2022-08-12T18:38:13.340Z,49.37
2022-08-12T18:41:10.108Z,49.67
2022-08-12T18:43:58.492Z,49.62
2022-08-12T18:46:46.823Z,49.89
2022-08-12T18:49:28.023Z,49.90
2022-08-12T18:52:05.182Z,50.33
2022-08-12T18:54:49.322Z,50.46
2022-08-12T18:58:07.005Z,50.40
2022-08-12T19:00:25.123Z,50.47
2022-08-12T19:02:57.488Z,50.70
2022-08-12T19:05:53.196Z,50.89
2022-08-12T19:08:26.660Z,51.06
2022-08-12T19:11:21.802Z,51.36
2022-08-12T19:14:12.129Z,51.22
2022-08-12T19:16:52.605Z,51.00
2022-08-12T19:19:25.458Z,51.16
2022-08-12T19:21:58.148Z,51.35
2022-08-12T19:24:48.640Z,51.56
2022-08-12T19:27:21.526Z,51.92
2022-08-12T19:30:06.555Z,52.09
2022-08-12T19:32:41.645Z,52.08
2022-08-12T19:38:07.971Z,52.64
2022-08-12T19:40:43.005Z,53.24
2022-08-12T19:43:21.825Z,53.05
2022-08-12T19:45:57.277Z,53.15
2022-08-12T19:48:32.728Z,52.94
2022-08-12T19:51:09.010Z,52.65
2022-08-12T19:53:57.541Z,52.71
2022-08-12T19:56:32.451Z,52.80
2022-08-12T19:59:22.967Z,53.21
2022-08-12T20:02:03.333Z,53.29
2022-08-12T20:04:40.464Z,53.28
2022-08-12T20:07:23.661Z,53.44
2022-08-12T20:09:58.967Z,54.01
2022-08-12T20:12:32.974Z,54.13
2022-08-12T20:15:09.240Z,53.83
2022-08-12T20:17:50.733Z,53.80
2022-08-12T20:20:27.722Z,54.17
2022-08-12T20:23:06.390Z,54.36
2022-08-12T20:25:52.648Z,54.79
2022-08-12T20:28:31.863Z,54.78
2022-08-12T20:31:04.349Z,55.05
2022-08-12T20:33:50.608Z,54.92
2022-08-12T20:36:42.963Z,55.10
2022-08-12T20:39:52.988Z,55.10
2022-08-12T20:42:11.960Z,55.23
2022-08-12T20:44:44.832Z,55.41
2022-08-12T20:47:29.509Z,55.24
2022-08-12T20:51:06.349Z,55.10
2022-08-12T20:54:58.664Z,55.30
2022-08-12T20:57:38.040Z,55.51
2022-08-12T21:00:30.168Z,55.64
2022-08-12T21:03:32.609Z,55.71
2022-08-12T21:06:25.068Z,56.07
2022-08-12T21:09:01.734Z,56.37
2022-08-12T21:11:36.606Z,56.52
2022-08-12T21:14:10.632Z,56.66
2022-08-12T21:16:43.025Z,56.62
2022-08-12T21:19:25.804Z,56.55
2022-08-12T21:22:24.817Z,56.76
2022-08-12T21:24:58.185Z,56.88
2022-08-12T21:27:58.983Z,57.24
2022-08-12T21:30:27.333Z,57.20
2022-08-12T21:33:10.491Z,57.24
2022-08-12T21:35:47.651Z,57.11
2022-08-12T21:38:22.743Z,57.19
2022-08-12T21:40:56.271Z,56.95
2022-08-12T21:43:29.134Z,56.97
2022-08-12T21:46:34.688Z,57.32
2022-08-12T21:49:09.630Z,57.47
2022-08-12T21:51:50.279Z,57.61
2022-08-12T21:54:24.907Z,57.98
2022-08-12T21:56:59.793Z,58.07
2022-08-12T21:59:32.248Z,58.08
2022-08-12T22:02:30.910Z,58.38
2022-08-12T22:05:20.583Z,58.68
2022-08-12T22:07:55.207Z,58.53
2022-08-12T22:10:31.215Z,58.45
2022-08-12T22:13:03.397Z,58.59
2022-08-12T22:15:38.100Z,58.66
2022-08-12T22:18:12.951Z,58.63
2022-08-12T22:20:48.787Z,58.58
2022-08-12T22:23:28.494Z,58.65
2022-08-12T22:26:29.098Z,58.86
2022-08-12T22:29:19.092Z,58.97
2022-08-12T22:31:53.822Z,58.78
2022-08-12T22:34:33.475Z,58.82
2022-08-12T22:37:05.874Z,58.90
2022-08-12T22:39:44.851Z,59.01
2022-08-12T22:42:34.177Z,59.13
2022-08-12T22:45:23.885Z,59.28
2022-08-12T22:47:57.054Z,59.14
2022-08-12T22:50:29.854Z,59.14
2022-08-12T22:53:16.231Z,59.64
2022-08-12T22:55:59.733Z,59.86
2022-08-12T22:58:41.208Z,59.99
2022-08-12T23:01:13.698Z,60.06
2022-08-12T23:03:54.189Z,60.02
2022-08-12T23:06:28.798Z,60.24
2022-08-12T23:09:02.091Z,60.53
2022-08-12T23:11:40.825Z,60.63
2022-08-12T23:14:14.135Z,60.71
2022-08-12T23:16:49.559Z,60.86
2022-08-12T23:19:38.213Z,60.93
2022-08-12T23:23:05.878Z,60.78
2022-08-12T23:25:02.560Z,61.02
2022-08-12T23:27:55.965Z,61.08
2022-08-12T23:30:32.190Z,61.06
2022-08-12T23:33:13.569Z,61.00
2022-08-12T23:36:03.389Z,60.90
2022-08-12T23:38:36.199Z,60.84
2022-08-12T23:41:15.204Z,60.85
2022-08-12T23:43:50.213Z,60.61
2022-08-12T23:46:25.797Z,60.37
2022-08-12T23:49:00.934Z,60.38
2022-08-12T23:51:36.534Z,60.11
2022-08-12T23:54:17.795Z,60.10
2022-08-12T23:57:11.271Z,59.83
2022-08-12T23:59:47.399Z,59.71
